Time;durP1;ratioP1;P1;durP2;ratioP2;P2;SDS_P1;SDS_P2;PMS_P1;PMS_P2;Temp;Humidity;BMP_temperature;BMP_pressure;BME280_temperature;BME280_humidity;BME280_pressure;Samples;Min_cycle;Max_cycle;Signal;HPM_P1;HPM_P2
2022/11/13 00:02:10;;;;;;;24.98;19.60;;;5.70;99.90;;;;;;5059750;28;20041;-66
2022/11/13 00:04:36;;;;;;;25.58;20.02;;;5.70;99.90;;;;;;5064396;28;20115;-66
2022/11/13 00:07:02;;;;;;;25.23;19.60;;;5.70;99.90;;;;;;5060854;28;20044;-66
2022/11/13 00:09:27;;;;;;;24.85;17.60;;;5.70;99.90;;;;;;5061492;28;20161;-66
2022/11/13 00:11:53;;;;;;;24.60;18.85;;;5.80;99.90;;;;;;5063905;28;20044;-66
2022/11/13 00:14:19;;;;;;;20.30;16.38;;;5.80;99.90;;;;;;5063717;28;20090;-66
2022/11/13 00:16:47;;;;;;;18.33;16.08;;;5.80;99.90;;;;;;5063608;28;20122;-66
2022/11/13 00:19:13;;;;;;;22.90;17.20;;;5.90;99.90;;;;;;5063743;28;20124;-66
2022/11/13 00:21:38;;;;;;;23.00;17.63;;;5.90;99.90;;;;;;5078481;28;20669;-66
2022/11/13 00:24:04;;;;;;;22.63;17.42;;;6.00;99.90;;;;;;5062426;28;20044;-66
2022/11/13 00:26:30;;;;;;;23.38;19.25;;;6.00;99.90;;;;;;5057564;28;20547;-66
2022/11/13 00:29:01;;;;;;;24.08;18.35;;;6.00;99.90;;;;;;5052357;28;20455;-66
2022/11/13 00:31:27;;;;;;;21.35;17.95;;;6.00;99.90;;;;;;5058855;28;20033;-66
2022/11/13 00:33:53;;;;;;;19.80;15.75;;;6.00;99.90;;;;;;5061930;28;20582;-66
2022/11/13 00:36:24;;;;;;;18.80;16.65;;;6.00;99.90;;;;;;5060927;28;20037;-66
2022/11/13 00:38:50;;;;;;;29.48;22.38;;;6.00;99.90;;;;;;5042017;28;20102;-66
2022/11/13 00:41:15;;;;;;;20.42;17.00;;;6.00;99.90;;;;;;5048746;28;20033;-66
2022/11/13 00:43:41;;;;;;;21.92;17.67;;;6.00;99.90;;;;;;5061045;28;20446;-66
2022/11/13 00:46:08;;;;;;;23.48;17.55;;;6.00;99.90;;;;;;5049792;28;20056;-66
2022/11/13 00:48:34;;;;;;;18.50;16.25;;;6.00;99.90;;;;;;5057933;28;20110;-67
2022/11/13 00:51:00;;;;;;;20.92;16.30;;;6.00;99.90;;;;;;5060616;28;20127;-66
2022/11/13 00:53:26;;;;;;;19.77;15.77;;;6.00;99.90;;;;;;5038078;28;20128;-66
2022/11/13 00:55:51;;;;;;;22.02;15.88;;;6.00;99.90;;;;;;5058225;28;20051;-66
2022/11/13 00:58:17;;;;;;;19.48;15.43;;;6.00;99.90;;;;;;5052977;28;20099;-66
2022/11/13 01:00:45;;;;;;;17.42;14.05;;;6.00;99.90;;;;;;5060268;28;20072;-66
2022/11/13 01:03:11;;;;;;;19.85;16.23;;;6.10;99.90;;;;;;5041404;28;20210;-66
2022/11/13 01:05:39;;;;;;;17.92;15.02;;;6.00;99.90;;;;;;5057845;28;20043;-66
2022/11/13 01:08:06;;;;;;;17.48;14.15;;;6.00;99.90;;;;;;5052468;28;20040;-66
2022/11/13 01:10:34;;;;;;;19.20;15.43;;;6.10;99.90;;;;;;5064095;28;20042;-66
2022/11/13 01:12:59;;;;;;;18.48;15.48;;;6.10;99.90;;;;;;5059580;28;20036;-66
2022/11/13 01:15:25;;;;;;;18.33;14.65;;;6.00;99.90;;;;;;5055832;28;20075;-67
2022/11/13 01:17:53;;;;;;;16.88;15.07;;;6.10;99.90;;;;;;5055472;28;20044;-67
2022/11/13 01:20:21;;;;;;;19.92;14.40;;;6.10;99.90;;;;;;5044689;28;20511;-66
2022/11/13 01:22:46;;;;;;;17.50;14.25;;;6.10;99.90;;;;;;5046005;28;20124;-66
2022/11/13 01:25:12;;;;;;;18.42;15.20;;;6.10;99.90;;;;;;5061269;28;20068;-66
2022/11/13 01:27:41;;;;;;;19.58;14.93;;;6.20;99.90;;;;;;5055115;28;20040;-66
2022/11/13 01:30:07;;;;;;;18.75;14.35;;;6.20;99.90;;;;;;5062349;28;20032;-66
2022/11/13 01:32:33;;;;;;;16.42;14.18;;;6.20;99.90;;;;;;5042778;28;20090;-66
2022/11/13 01:34:59;;;;;;;18.92;14.65;;;6.20;99.90;;;;;;5035050;28;20040;-66
2022/11/13 01:37:24;;;;;;;17.33;14.48;;;6.20;99.90;;;;;;5060188;28;20121;-66
2022/11/13 01:39:50;;;;;;;14.82;13.27;;;6.20;99.90;;;;;;5042546;28;20353;-66
2022/11/13 01:42:16;;;;;;;17.40;14.45;;;6.20;99.90;;;;;;5059255;28;20036;-66
2022/11/13 01:44:54;;;;;;;21.20;13.98;;;6.20;99.90;;;;;;5056598;28;20040;-66
2022/11/13 01:47:22;;;;;;;17.33;14.43;;;6.20;99.90;;;;;;5024423;28;1096952;-66
2022/11/13 01:49:50;;;;;;;15.68;13.55;;;6.20;99.90;;;;;;5056018;28;20047;-66
2022/11/13 01:52:25;;;;;;;16.15;13.25;;;6.30;99.90;;;;;;5044944;28;20049;-66
2022/11/13 01:54:54;;;;;;;18.55;13.27;;;6.30;99.90;;;;;;5039457;28;20388;-66
2022/11/13 01:57:20;;;;;;;17.38;13.55;;;6.30;99.90;;;;;;5062037;28;20484;-66
2022/11/13 01:59:54;;;;;;;18.27;14.18;;;6.30;99.90;;;;;;5057830;28;20037;-66
2022/11/13 02:02:19;;;;;;;15.02;13.40;;;6.30;99.90;;;;;;5042978;28;20036;-66
2022/11/13 02:04:46;;;;;;;19.60;14.80;;;6.20;99.90;;;;;;5059413;28;20041;-66
2022/11/13 02:07:14;;;;;;;15.85;13.77;;;6.30;99.90;;;;;;5062661;28;20072;-66
2022/11/13 02:09:42;;;;;;;16.85;13.02;;;6.30;99.90;;;;;;5056698;28;20120;-66
2022/11/13 02:12:12;;;;;;;17.50;13.23;;;6.20;99.90;;;;;;5058884;28;20468;-66
2022/11/13 02:14:48;;;;;;;20.65;13.20;;;6.20;99.90;;;;;;5046610;28;20040;-66
2022/11/13 02:17:21;;;;;;;17.27;13.00;;;6.20;99.90;;;;;;5060533;28;20045;-67
2022/11/13 02:19:52;;;;;;;17.03;14.43;;;6.20;99.90;;;;;;5057711;28;20040;-66
2022/11/13 02:22:33;;;;;;;16.27;13.70;;;6.10;99.90;;;;;;5057935;28;20401;-66
2022/11/13 02:25:01;;;;;;;16.95;13.77;;;6.10;99.90;;;;;;5037939;28;20041;-66
2022/11/13 02:27:41;;;;;;;16.95;12.75;;;6.10;99.90;;;;;;5045412;28;20493;-66
2022/11/13 02:30:25;;;;;;;16.08;13.07;;;6.10;99.90;;;;;;5060844;28;20496;-66
2022/11/13 02:32:52;;;;;;;17.08;13.57;;;6.00;99.90;;;;;;5062303;28;20040;-66
2022/11/13 02:35:23;;;;;;;15.02;12.88;;;6.00;99.90;;;;;;5062471;28;20111;-66
2022/11/13 02:37:48;;;;;;;16.80;13.38;;;5.90;99.90;;;;;;5046373;28;20472;-66
2022/11/13 02:40:14;;;;;;;16.92;13.52;;;5.90;99.90;;;;;;5057737;28;20041;-66
2022/11/13 02:42:40;;;;;;;17.52;14.25;;;5.90;99.90;;;;;;5061622;28;20037;-66
2022/11/13 02:45:06;;;;;;;16.52;13.75;;;5.90;99.90;;;;;;5036388;28;20041;-66
2022/11/13 02:47:32;;;;;;;15.15;13.38;;;5.90;99.90;;;;;;5059842;28;20072;-66
2022/11/13 02:49:58;;;;;;;15.38;13.40;;;5.80;99.90;;;;;;5056471;28;20083;-66
2022/11/13 02:52:24;;;;;;;16.63;13.77;;;5.80;99.90;;;;;;5057193;28;20496;-66
2022/11/13 02:54:49;;;;;;;18.25;14.32;;;5.90;99.90;;;;;;5060898;28;20037;-66
2022/11/13 02:57:15;;;;;;;15.88;13.52;;;5.90;99.90;;;;;;5060371;28;20036;-66
2022/11/13 02:59:41;;;;;;;19.13;14.10;;;5.80;99.90;;;;;;5048012;28;20090;-66
2022/11/13 03:02:07;;;;;;;19.00;14.68;;;5.80;99.90;;;;;;5058374;28;20047;-66
2022/11/13 03:04:32;;;;;;;17.52;14.32;;;5.90;99.90;;;;;;5058438;28;20048;-66
2022/11/13 03:06:58;;;;;;;17.52;14.30;;;5.80;99.90;;;;;;5057946;28;20032;-66
2022/11/13 03:09:24;;;;;;;20.25;14.48;;;5.70;99.90;;;;;;5058982;28;20551;-65
2022/11/13 03:11:49;;;;;;;18.80;15.10;;;5.70;99.90;;;;;;5039599;28;20105;-66
2022/11/13 03:14:15;;;;;;;19.33;14.93;;;5.70;99.90;;;;;;5048266;28;20044;-65
2022/11/13 03:16:41;;;;;;;19.48;14.90;;;5.70;99.90;;;;;;5062208;28;20055;-66
2022/11/13 03:19:07;;;;;;;16.58;14.55;;;5.70;99.90;;;;;;5059608;28;20048;-66
2022/11/13 03:21:33;;;;;;;19.25;15.80;;;5.70;99.90;;;;;;5063770;28;20468;-66
2022/11/13 03:23:59;;;;;;;17.88;15.95;;;5.60;99.90;;;;;;5063161;28;20037;-66
2022/11/13 03:26:27;;;;;;;18.40;14.50;;;5.70;99.90;;;;;;5067188;28;20035;-66
2022/11/13 03:28:53;;;;;;;18.85;15.70;;;5.70;99.90;;;;;;5059800;28;20494;-66
2022/11/13 03:31:19;;;;;;;18.75;15.55;;;5.60;99.90;;;;;;5060344;28;20235;-66
2022/11/13 03:33:45;;;;;;;22.48;15.60;;;5.60;99.90;;;;;;5043367;28;20067;-66
2022/11/13 03:36:10;;;;;;;20.15;15.02;;;5.60;99.90;;;;;;5043251;28;20044;-66
2022/11/13 03:38:37;;;;;;;19.77;14.85;;;5.60;99.90;;;;;;5064754;28;20044;-66
2022/11/13 03:41:02;;;;;;;16.67;14.68;;;5.50;99.90;;;;;;5058386;28;20029;-67
2022/11/13 03:43:28;;;;;;;18.08;14.88;;;5.50;99.90;;;;;;5040352;28;20101;-66
2022/11/13 03:45:54;;;;;;;19.42;15.65;;;5.50;99.90;;;;;;5064720;28;20058;-66
2022/11/13 03:48:20;;;;;;;17.88;15.68;;;5.50;99.90;;;;;;5037841;28;20380;-66
2022/11/13 03:50:48;;;;;;;18.30;16.02;;;5.50;99.90;;;;;;5064006;28;20059;-66
2022/11/13 03:53:14;;;;;;;19.05;15.30;;;5.50;99.90;;;;;;5060530;28;20143;-66
2022/11/13 03:55:41;;;;;;;19.50;15.75;;;5.50;99.90;;;;;;5062212;28;20071;-66
2022/11/13 03:58:07;;;;;;;19.90;16.67;;;5.50;99.90;;;;;;5058954;28;20488;-66
2022/11/13 04:00:33;;;;;;;19.45;16.45;;;5.50;99.90;;;;;;5044952;28;20068;-66
2022/11/13 04:02:59;;;;;;;19.15;16.63;;;5.50;99.90;;;;;;5063240;28;20037;-66
2022/11/13 04:05:25;;;;;;;20.33;16.23;;;5.50;99.90;;;;;;5060149;28;20405;-66
2022/11/13 04:07:51;;;;;;;19.98;16.30;;;5.50;99.90;;;;;;5062746;28;20119;-66
2022/11/13 04:10:17;;;;;;;20.30;16.60;;;5.50;99.90;;;;;;5044519;28;20507;-66
2022/11/13 04:12:43;;;;;;;21.80;16.35;;;5.50;99.90;;;;;;5066070;28;20147;-66
2022/11/13 04:15:09;;;;;;;20.02;15.77;;;5.50;99.90;;;;;;5059637;28;20374;-66
2022/11/13 04:17:34;;;;;;;19.50;16.58;;;5.50;99.90;;;;;;5062092;28;20045;-66
2022/11/13 04:20:00;;;;;;;19.95;16.52;;;5.50;99.90;;;;;;5056215;28;20048;-66
2022/11/13 04:22:26;;;;;;;21.88;15.90;;;5.50;99.90;;;;;;5064863;28;20450;-66
2022/11/13 04:24:51;;;;;;;20.42;16.08;;;5.60;99.90;;;;;;5058724;28;20112;-66
2022/11/13 04:27:17;;;;;;;25.02;17.33;;;5.40;99.90;;;;;;5046028;28;20476;-66
2022/11/13 04:29:43;;;;;;;23.27;17.15;;;5.40;99.90;;;;;;5059019;28;20044;-66
2022/11/13 04:32:09;;;;;;;23.63;16.38;;;5.40;99.90;;;;;;5045049;28;20060;-66
2022/11/13 04:34:34;;;;;;;19.85;15.80;;;5.40;99.90;;;;;;5040359;28;20432;-65
2022/11/13 04:37:00;;;;;;;22.45;17.27;;;5.40;99.90;;;;;;5048392;28;20484;-65
2022/11/13 04:39:26;;;;;;;21.02;17.02;;;5.40;99.90;;;;;;5061139;28;20396;-66
2022/11/13 04:44:35;;;;;;;21.15;16.58;;;5.40;99.90;;;;;;5029745;28;20060;-65
2022/11/13 04:47:01;;;;;;;20.23;18.05;;;5.40;99.90;;;;;;5050070;28;20041;-66
2022/11/13 04:49:27;;;;;;;20.20;16.48;;;5.50;99.90;;;;;;5056642;28;20052;-65
2022/11/13 04:51:52;;;;;;;19.98;16.30;;;5.60;99.90;;;;;;5064903;28;20029;-65
2022/11/13 04:54:18;;;;;;;22.10;18.02;;;5.50;99.90;;;;;;5026300;28;20048;-65
2022/11/13 04:56:44;;;;;;;20.60;16.92;;;5.50;99.90;;;;;;5045021;28;20097;-66
2022/11/13 04:59:10;;;;;;;19.90;16.85;;;5.50;99.90;;;;;;5060149;28;20048;-66
2022/11/13 05:01:36;;;;;;;20.52;17.17;;;5.50;99.90;;;;;;5061755;28;20377;-66
2022/11/13 05:04:02;;;;;;;21.58;18.10;;;5.40;99.90;;;;;;5056504;28;20035;-66
2022/11/13 05:06:28;;;;;;;21.77;18.13;;;5.50;99.90;;;;;;5063183;28;20044;-66
2022/11/13 05:08:54;;;;;;;19.52;17.50;;;5.40;99.90;;;;;;5065025;28;20562;-66
2022/11/13 05:11:19;;;;;;;21.55;17.55;;;5.50;99.90;;;;;;5059861;28;20039;-66
2022/11/13 05:13:45;;;;;;;23.00;18.85;;;5.50;99.90;;;;;;5063216;28;20354;-66
2022/11/13 05:16:13;;;;;;;21.23;18.63;;;5.50;99.90;;;;;;5035581;28;20061;-66
2022/11/13 05:18:39;;;;;;;23.20;18.10;;;5.50;99.90;;;;;;5059214;28;20045;-66
2022/11/13 05:21:07;;;;;;;21.83;17.73;;;5.50;99.90;;;;;;5049497;28;20356;-66
2022/11/13 05:23:33;;;;;;;20.95;18.40;;;5.60;99.90;;;;;;5062413;28;20114;-67
2022/11/13 05:26:17;;;;;;;22.55;18.58;;;5.60;99.90;;;;;;5057046;28;20037;-67
2022/11/13 05:28:42;;;;;;;19.45;17.33;;;5.70;99.90;;;;;;5060915;28;20040;-66
2022/11/13 05:31:14;;;;;;;20.48;17.77;;;5.80;99.90;;;;;;5061246;28;20044;-66
2022/11/13 05:33:41;;;;;;;20.45;18.25;;;5.80;99.90;;;;;;5040883;28;20067;-66
2022/11/13 05:36:10;;;;;;;21.67;18.35;;;5.80;99.90;;;;;;5043361;28;20040;-66
2022/11/13 05:38:36;;;;;;;20.25;17.90;;;5.70;99.90;;;;;;5062562;28;20364;-66
2022/11/13 05:41:03;;;;;;;21.38;17.90;;;5.80;99.90;;;;;;5054557;28;20033;-66
2022/11/13 05:43:28;;;;;;;22.00;17.40;;;5.70;99.90;;;;;;5059043;28;20134;-66
2022/11/13 05:46:05;;;;;;;20.20;16.70;;;5.70;99.90;;;;;;5056290;28;20088;-66
2022/11/13 05:48:31;;;;;;;22.02;17.67;;;5.70;99.90;;;;;;5059294;28;20044;-66
2022/11/13 05:51:20;;;;;;;18.83;16.92;;;5.60;99.90;;;;;;5058839;28;20047;-66
2022/11/13 05:53:46;;;;;;;19.50;16.95;;;5.60;99.90;;;;;;5058150;28;20412;-66
2022/11/13 05:56:26;;;;;;;21.75;17.75;;;5.60;99.90;;;;;;5058758;28;20037;-66
2022/11/13 05:58:53;;;;;;;20.75;16.95;;;5.60;99.90;;;;;;5056637;28;20389;-66
2022/11/13 06:01:26;;;;;;;21.13;16.65;;;5.60;99.90;;;;;;5058935;28;20528;-66
2022/11/13 06:03:54;;;;;;;20.58;17.85;;;5.60;99.90;;;;;;5055033;28;20051;-66
2022/11/13 06:06:21;;;;;;;21.75;16.52;;;5.60;99.90;;;;;;5040233;28;20372;-66
2022/11/13 06:08:48;;;;;;;19.98;16.83;;;5.50;99.90;;;;;;5041668;28;20032;-66
2022/11/13 06:11:17;;;;;;;19.67;16.92;;;5.50;99.90;;;;;;5060457;28;20041;-67
2022/11/13 06:13:44;;;;;;;21.35;16.80;;;5.50;99.90;;;;;;5044291;28;20040;-67
2022/11/13 06:16:15;;;;;;;18.42;16.48;;;5.50;99.90;;;;;;5061480;28;20028;-67
2022/11/13 06:18:42;;;;;;;19.40;16.23;;;5.50;99.90;;;;;;5061650;28;20098;-67
2022/11/13 06:21:12;;;;;;;19.63;16.55;;;5.40;99.90;;;;;;5060864;28;20116;-66
2022/11/13 06:23:39;;;;;;;22.15;16.77;;;5.40;99.90;;;;;;5056166;28;20107;-67
2022/11/13 06:26:07;;;;;;;22.35;17.30;;;5.40;99.90;;;;;;5062901;28;20037;-67
2022/11/13 06:28:34;;;;;;;19.05;17.05;;;5.30;99.90;;;;;;5057880;28;20056;-68
2022/11/13 06:31:05;;;;;;;18.15;16.23;;;5.40;99.90;;;;;;5047418;28;20515;-67
2022/11/13 06:33:31;;;;;;;21.27;17.23;;;5.30;99.90;;;;;;5044003;28;20075;-67
2022/11/13 06:36:01;;;;;;;21.40;17.40;;;5.20;99.90;;;;;;5058816;28;20032;-66
2022/11/13 06:38:33;;;;;;;22.00;16.92;;;5.30;99.90;;;;;;5063653;28;20049;-67
2022/11/13 06:40:59;;;;;;;20.38;16.65;;;5.30;99.90;;;;;;5058886;28;20425;-67
2022/11/13 06:43:25;;;;;;;20.23;17.48;;;5.30;99.90;;;;;;5057916;28;20146;-66
2022/11/13 06:45:51;;;;;;;20.55;16.75;;;5.30;99.90;;;;;;5064168;28;20094;-66
2022/11/13 06:48:17;;;;;;;18.10;16.17;;;5.30;99.90;;;;;;5053773;28;20071;-66
2022/11/13 06:50:43;;;;;;;23.25;17.20;;;5.30;99.90;;;;;;5061591;28;20485;-67
2022/11/13 06:53:09;;;;;;;20.45;17.67;;;5.30;99.90;;;;;;5059823;28;20040;-67
2022/11/13 06:55:34;;;;;;;21.08;16.30;;;5.30;99.90;;;;;;5065323;28;20032;-66
2022/11/13 06:58:00;;;;;;;20.23;17.83;;;5.30;99.90;;;;;;5062649;28;20040;-67
2022/11/13 07:00:26;;;;;;;19.95;17.80;;;5.30;99.90;;;;;;5048619;28;20139;-66
2022/11/13 07:02:52;;;;;;;19.67;16.52;;;5.30;99.90;;;;;;5062583;28;20075;-67
2022/11/13 07:05:17;;;;;;;22.17;16.13;;;5.30;99.90;;;;;;5044526;28;20071;-67
2022/11/13 07:07:43;;;;;;;21.98;16.75;;;5.30;99.90;;;;;;5054932;28;20039;-67
2022/11/13 07:10:09;;;;;;;17.40;15.65;;;5.20;99.90;;;;;;5047431;28;20046;-67
2022/11/13 07:12:35;;;;;;;18.23;16.33;;;5.20;99.90;;;;;;5051018;28;20045;-66
2022/11/13 07:15:01;;;;;;;19.75;15.93;;;5.20;99.90;;;;;;5045193;28;20491;-67
2022/11/13 07:17:28;;;;;;;19.63;16.83;;;5.20;99.90;;;;;;5065792;28;20032;-67
2022/11/13 07:19:53;;;;;;;18.48;16.30;;;5.20;99.90;;;;;;5060076;28;20047;-67
2022/11/13 07:22:19;;;;;;;18.92;16.17;;;5.20;99.90;;;;;;5063437;28;20120;-67
2022/11/13 07:24:45;;;;;;;19.73;15.85;;;5.20;99.90;;;;;;5043377;28;20396;-66
2022/11/13 07:27:11;;;;;;;20.05;16.00;;;5.30;99.90;;;;;;5067505;28;20032;-67
2022/11/13 07:29:37;;;;;;;20.20;16.95;;;5.30;99.90;;;;;;5058966;28;20048;-67
2022/11/13 07:32:04;;;;;;;18.83;16.80;;;5.30;99.90;;;;;;5043319;28;21118;-66
2022/11/13 07:34:29;;;;;;;18.85;16.00;;;5.40;99.90;;;;;;5062579;28;20044;-67
2022/11/13 07:36:55;;;;;;;19.33;16.73;;;5.40;99.90;;;;;;5059294;28;20427;-67
2022/11/13 07:39:21;;;;;;;18.73;16.20;;;5.50;99.90;;;;;;5047445;28;20499;-67
2022/11/13 07:41:47;;;;;;;18.55;16.30;;;5.60;99.90;;;;;;5060537;28;21311;-67
2022/11/13 07:44:13;;;;;;;17.42;15.63;;;5.60;99.90;;;;;;5043001;28;20045;-66
2022/11/13 07:46:39;;;;;;;16.70;14.95;;;5.60;99.90;;;;;;5038931;28;20053;-67
2022/11/13 07:49:05;;;;;;;18.02;15.77;;;5.60;99.90;;;;;;5062156;28;20033;-67
2022/11/13 07:51:30;;;;;;;18.33;15.45;;;5.70;99.90;;;;;;5059131;28;20543;-67
2022/11/13 07:53:56;;;;;;;17.73;15.32;;;5.80;99.90;;;;;;5064752;28;20567;-67
2022/11/13 07:56:24;;;;;;;16.60;14.80;;;6.10;99.90;;;;;;5060283;28;20046;-67
2022/11/13 07:58:50;;;;;;;17.88;14.75;;;6.40;99.90;;;;;;5059538;28;20424;-66
2022/11/13 08:01:15;;;;;;;16.13;13.48;;;6.80;99.90;;;;;;5060210;28;20025;-67
2022/11/13 08:03:41;;;;;;;14.35;12.80;;;6.90;99.90;;;;;;5060516;28;20099;-67
2022/11/13 08:06:07;;;;;;;15.80;13.57;;;6.80;99.90;;;;;;5059404;28;20167;-67
2022/11/13 08:08:34;;;;;;;15.77;13.65;;;6.70;99.90;;;;;;5059469;28;20040;-67
2022/11/13 08:11:04;;;;;;;16.95;13.43;;;6.70;99.90;;;;;;5059023;28;20143;-67
2022/11/13 08:13:30;;;;;;;16.50;13.43;;;6.60;99.90;;;;;;5059557;28;20063;-67
2022/11/13 08:16:00;;;;;;;16.52;14.10;;;6.50;99.90;;;;;;5055466;28;20036;-67
2022/11/13 08:18:27;;;;;;;15.75;14.15;;;6.60;99.90;;;;;;5062692;28;20119;-67
2022/11/13 08:20:53;;;;;;;14.77;13.27;;;7.00;99.90;;;;;;5057970;28;20028;-67
2022/11/13 08:23:19;;;;;;;14.38;12.05;;;8.00;99.90;;;;;;5044651;28;20554;-67
2022/11/13 08:25:45;;;;;;;15.07;12.48;;;9.10;99.90;;;;;;5060426;28;20037;-67
2022/11/13 08:28:11;;;;;;;12.38;11.15;;;10.30;99.90;;;;;;5043887;28;20037;-67
2022/11/13 08:30:37;;;;;;;11.23;10.02;;;11.50;99.90;;;;;;5045047;28;20036;-67
2022/11/13 08:33:03;;;;;;;10.93;9.70;;;12.50;99.90;;;;;;5061457;28;20510;-67
2022/11/13 08:35:29;;;;;;;11.30;10.20;;;13.20;99.90;;;;;;5057756;28;20041;-68
2022/11/13 08:38:06;;;;;;;11.10;9.95;;;13.70;99.90;;;;;;5043503;28;20044;-68
2022/11/13 08:40:32;;;;;;;9.98;8.98;;;14.40;99.90;;;;;;5060835;28;20094;-68
2022/11/13 08:42:59;;;;;;;10.75;9.75;;;14.80;99.90;;;;;;5056859;28;20048;-68
2022/11/13 08:45:26;;;;;;;10.27;8.73;;;15.10;99.90;;;;;;5054306;28;20531;-67
2022/11/13 08:47:51;;;;;;;11.02;8.63;;;15.20;99.90;;;;;;5061221;28;20044;-68
2022/11/13 08:50:17;;;;;;;9.85;8.95;;;15.20;99.90;;;;;;5055128;28;20045;-69
2022/11/13 08:52:43;;;;;;;8.88;8.07;;;15.50;99.90;;;;;;5054185;28;20039;-68
2022/11/13 08:55:09;;;;;;;10.55;8.57;;;15.90;99.90;;;;;;5055897;28;20115;-68
2022/11/13 08:57:34;;;;;;;9.85;8.93;;;16.30;99.90;;;;;;5049267;28;20502;-68
2022/11/13 09:00:00;;;;;;;9.10;8.30;;;16.50;99.90;;;;;;5053344;28;20127;-67
2022/11/13 09:02:26;;;;;;;9.25;8.35;;;16.80;99.90;;;;;;5051683;28;20064;-68
2022/11/13 09:04:52;;;;;;;9.80;8.13;;;17.10;99.90;;;;;;5055317;28;20400;-68
2022/11/13 09:07:17;;;;;;;9.50;8.50;;;17.30;99.90;;;;;;5035875;28;20076;-68
2022/11/13 09:09:43;;;;;;;9.68;8.73;;;17.60;99.90;;;;;;5052724;28;20028;-68
2022/11/13 09:12:09;;;;;;;8.85;8.05;;;17.80;99.70;;;;;;5038045;28;20044;-68
2022/11/13 09:14:35;;;;;;;9.55;8.45;;;17.90;97.90;;;;;;5055588;28;20120;-68
2022/11/13 09:17:01;;;;;;;8.98;7.68;;;17.90;97.30;;;;;;5057444;28;20037;-68
2022/11/13 09:19:27;;;;;;;8.35;7.65;;;17.90;96.40;;;;;;5039814;28;20056;-68
2022/11/13 09:21:53;;;;;;;9.23;8.32;;;17.20;95.20;;;;;;5060437;28;20072;-67
2022/11/13 09:24:18;;;;;;;7.97;7.28;;;16.00;96.20;;;;;;5056426;28;20040;-68
2022/11/13 09:26:44;;;;;;;9.05;8.25;;;14.80;97.90;;;;;;5056412;28;20033;-68
2022/11/13 09:29:10;;;;;;;8.95;8.05;;;13.90;99.90;;;;;;5045295;28;20197;-68
2022/11/13 09:31:39;;;;;;;8.60;7.88;;;13.60;99.90;;;;;;5065037;28;20202;-68
2022/11/13 09:34:06;;;;;;;8.85;7.90;;;14.00;99.90;;;;;;5057066;28;20116;-68
2022/11/13 09:36:31;;;;;;;9.18;8.23;;;14.10;99.90;;;;;;5060222;28;20092;-68
2022/11/13 09:38:59;;;;;;;8.18;7.38;;;14.30;99.90;;;;;;5043157;28;20044;-68
2022/11/13 09:41:29;;;;;;;7.85;7.15;;;15.30;99.90;;;;;;5061939;28;20045;-68
2022/11/13 09:44:05;;;;;;;8.23;7.43;;;16.30;99.90;;;;;;5041442;28;20476;-68
2022/11/13 09:46:50;;;;;;;8.10;7.30;;;16.90;99.50;;;;;;5043601;28;20045;-68
2022/11/13 09:49:20;;;;;;;8.52;7.40;;;17.90;98.60;;;;;;5059075;28;20044;-68
2022/11/13 09:52:11;;;;;;;8.32;7.35;;;18.40;96.40;;;;;;5057384;28;20045;-68
2022/11/13 09:54:37;;;;;;;8.18;7.38;;;18.40;95.30;;;;;;5058324;28;20480;-68
2022/11/13 09:57:25;;;;;;;7.97;7.18;;;18.00;93.70;;;;;;5060343;28;20075;-68
2022/11/13 10:00:20;;;;;;;8.93;7.78;;;18.10;92.70;;;;;;5059006;28;20124;-68
2022/11/13 10:03:04;;;;;;;;;;;17.90;93.40;;;;;;5059993;28;20075;-68
2022/11/13 10:05:53;;;;;;;7.90;7.20;;;16.80;89.00;;;;;;5056288;28;20127;-69
2022/11/13 10:08:27;;;;;;;7.90;7.15;;;15.40;95.90;;;;;;5063479;28;20139;-68
2022/11/13 10:11:45;;;;;;;8.18;7.30;;;14.40;98.40;;;;;;5058492;28;20036;-68
2022/11/13 10:14:32;;;;;;;7.78;7.03;;;13.50;99.60;;;;;;5001354;28;20852;-67
2022/11/13 10:17:23;;;;;;;8.25;7.53;;;12.70;99.90;;;;;;5038640;28;20049;-68
2022/11/13 10:19:57;;;;;;;8.57;7.68;;;12.10;99.90;;;;;;5062975;28;20040;-68
2022/11/13 10:22:38;;;;;;;8.57;7.60;;;11.70;99.90;;;;;;5046026;28;20078;-67
2022/11/13 10:25:25;;;;;;;8.65;7.78;;;11.50;99.90;;;;;;5057829;28;20260;-68
2022/11/13 10:28:00;;;;;;;7.80;7.10;;;11.20;99.90;;;;;;5064371;28;20111;-67
2022/11/13 10:30:28;;;;;;;8.55;7.65;;;11.00;99.90;;;;;;5066813;28;20423;-68
2022/11/13 10:33:03;;;;;;;8.63;7.82;;;10.80;99.90;;;;;;5066962;28;20039;-68
2022/11/13 10:35:40;;;;;;;8.80;7.90;;;10.80;99.90;;;;;;5049074;28;20508;-68
2022/11/13 10:38:24;;;;;;;8.80;7.90;;;10.70;99.90;;;;;;5060763;28;20136;-67
2022/11/13 10:40:50;;;;;;;8.07;7.28;;;10.60;99.90;;;;;;5061376;28;20090;-67
2022/11/13 10:43:25;;;;;;;8.90;7.13;;;10.60;99.90;;;;;;5046273;28;20276;-67
2022/11/13 10:45:59;;;;;;;8.00;7.20;;;10.60;99.90;;;;;;5061351;28;20118;-67
2022/11/13 10:48:29;;;;;;;7.50;6.78;;;10.50;99.90;;;;;;5063282;28;20051;-67
2022/11/13 10:51:03;;;;;;;7.57;6.88;;;10.60;99.90;;;;;;5063517;28;20037;-67
2022/11/13 10:53:40;;;;;;;7.80;6.88;;;10.50;99.90;;;;;;5061485;28;20037;-68
2022/11/13 10:56:31;;;;;;;7.60;6.90;;;10.60;99.90;;;;;;5062722;28;20383;-67
2022/11/13 10:59:16;;;;;;;8.10;6.45;;;10.50;99.90;;;;;;5063793;28;20037;-67
2022/11/13 11:01:43;;;;;;;8.10;6.65;;;10.60;99.90;;;;;;5061565;28;20453;-67
2022/11/13 11:04:20;;;;;;;7.13;6.43;;;10.60;99.90;;;;;;5063796;28;20036;-67
2022/11/13 11:06:46;;;;;;;8.68;7.13;;;10.60;99.90;;;;;;5058323;28;20040;-67
2022/11/13 11:09:25;;;;;;;7.05;6.35;;;10.60;99.90;;;;;;5043931;28;20056;-67
2022/11/13 11:12:15;;;;;;;7.03;6.32;;;10.60;99.90;;;;;;5045540;28;20483;-67
2022/11/13 11:14:53;;;;;;;7.55;6.85;;;10.70;99.90;;;;;;5060832;28;20146;-68
2022/11/13 11:17:22;;;;;;;7.63;6.30;;;10.70;99.90;;;;;;5061338;28;20119;-68
2022/11/13 11:19:57;;;;;;;6.50;5.90;;;10.70;99.90;;;;;;5063368;28;20048;-66
2022/11/13 11:22:29;;;;;;;7.10;6.40;;;10.80;99.90;;;;;;5059353;28;20111;-67
2022/11/13 11:25:19;;;;;;;7.22;6.50;;;10.90;99.90;;;;;;5063770;28;20395;-67
2022/11/13 11:27:59;;;;;;;9.27;7.55;;;10.90;99.90;;;;;;5043788;28;20060;-68
2022/11/13 11:30:28;;;;;;;7.95;7.07;;;11.00;99.90;;;;;;5041502;28;20048;-67
2022/11/13 11:33:29;;;;;;;7.75;6.95;;;11.00;99.90;;;;;;5054950;28;20047;-67
2022/11/13 11:36:20;;;;;;;7.60;6.75;;;11.00;99.90;;;;;;5049869;28;20040;-66
2022/11/13 11:39:05;;;;;;;7.40;6.63;;;11.00;99.90;;;;;;5056967;28;20101;-67
2022/11/13 11:41:43;;;;;;;;;;;11.00;99.90;;;;;;5058728;28;20076;-67
2022/11/13 11:44:30;;;;;;;8.65;6.50;;;11.00;99.90;;;;;;5037067;28;19916;-67
2022/11/13 11:46:55;;;;;;;6.90;6.28;;;11.00;99.90;;;;;;5040145;28;20150;-67
2022/11/13 11:49:25;;;;;;;8.45;6.63;;;11.10;99.90;;;;;;5052107;28;20320;-67
2022/11/13 11:52:19;;;;;;;7.35;6.55;;;11.10;99.90;;;;;;5059360;28;20414;-67
2022/11/13 11:55:23;;;;;;;6.77;6.10;;;11.10;99.90;;;;;;5061754;28;20403;-67
2022/11/13 11:58:10;;;;;;;7.00;5.93;;;11.30;99.90;;;;;;5060186;28;20299;-67
2022/11/13 12:00:43;;;;;;;8.00;6.20;;;11.40;99.90;;;;;;5059423;28;20041;-67
2022/11/13 12:03:34;;;;;;;5.93;5.32;;;11.50;99.90;;;;;;5060285;28;20048;-68
2022/11/13 12:06:19;;;;;;;7.43;6.25;;;11.50;99.90;;;;;;5057192;28;20110;-67
2022/11/13 12:08:50;;;;;;;7.53;5.18;;;11.60;99.90;;;;;;5064334;28;20433;-67
2022/11/13 12:11:32;;;;;;;7.03;6.10;;;11.70;99.90;;;;;;5065280;28;20120;-67
2022/11/13 12:14:15;;;;;;;5.85;5.10;;;11.80;99.90;;;;;;5062251;28;20115;-67
2022/11/13 12:16:59;;;;;;;6.18;5.57;;;11.80;99.90;;;;;;5045986;28;20364;-67
2022/11/13 12:19:34;;;;;;;7.22;4.90;;;11.90;99.90;;;;;;5026860;28;20132;-68
2022/11/13 12:22:45;;;;;;;6.30;5.72;;;11.90;99.90;;;;;;5047669;28;20230;-68
2022/11/13 12:25:34;;;;;;;7.72;4.82;;;12.00;99.90;;;;;;5062426;28;20044;-67
2022/11/13 12:28:35;;;;;;;5.60;5.10;;;12.00;99.90;;;;;;5061864;28;20094;-67
2022/11/13 12:31:20;;;;;;;7.20;5.47;;;12.00;99.90;;;;;;5060059;28;20108;-67
2022/11/13 12:34:01;;;;;;;6.03;4.90;;;12.10;99.90;;;;;;5042538;28;20044;-68
2022/11/13 12:36:28;;;;;;;5.72;4.72;;;12.10;99.90;;;;;;5059082;28;20598;-67
2022/11/13 12:39:24;;;;;;;5.88;5.13;;;12.10;99.90;;;;;;5062637;28;20041;-67
2022/11/13 12:42:00;;;;;;;5.65;5.05;;;12.20;99.90;;;;;;5059139;28;20033;-67
2022/11/13 12:44:28;;;;;;;5.60;5.10;;;12.20;99.90;;;;;;5063680;28;20056;-67
2022/11/13 12:46:56;;;;;;;6.40;4.70;;;12.20;99.90;;;;;;5042582;28;20048;-67
2022/11/13 12:49:25;;;;;;;5.97;5.00;;;12.20;99.90;;;;;;5059741;28;20044;-67
2022/11/13 12:52:20;;;;;;;4.90;4.35;;;12.30;99.90;;;;;;5061070;28;20091;-66
2022/11/13 12:54:45;;;;;;;5.53;4.57;;;12.30;99.90;;;;;;5053228;28;20049;-67
2022/11/13 12:57:22;;;;;;;6.85;4.53;;;12.40;99.90;;;;;;5061548;28;20119;-67
2022/11/13 12:59:52;;;;;;;5.60;4.60;;;12.50;99.90;;;;;;5059709;28;20090;-66